sensor_id;sensor_type;location;lat;lon;timestamp;temperature;humidity
25108;DHT22;13090;53.422;7.670;2022-07-29T00:04:15;17.30;60.00
25108;DHT22;13090;53.422;7.670;2022-07-29T00:09:18;17.20;60.20
25108;DHT22;13090;53.422;7.670;2022-07-29T00:14:21;17.10;60.10
25108;DHT22;13090;53.422;7.670;2022-07-29T00:19:24;17.00;61.50
25108;DHT22;13090;53.422;7.670;2022-07-29T00:24:26;17.00;60.70
25108;DHT22;13090;53.422;7.670;2022-07-29T00:29:30;16.80;61.30
25108;DHT22;13090;53.422;7.670;2022-07-29T00:34:35;16.70;61.80
25108;DHT22;13090;53.422;7.670;2022-07-29T00:39:37;16.70;61.80
25108;DHT22;13090;53.422;7.670;2022-07-29T00:44:41;16.80;62.00
25108;DHT22;13090;53.422;7.670;2022-07-29T00:49:44;16.80;62.20
25108;DHT22;13090;53.422;7.670;2022-07-29T00:54:46;16.80;61.90
25108;DHT22;13090;53.422;7.670;2022-07-29T00:59:50;16.90;62.80
25108;DHT22;13090;53.422;7.670;2022-07-29T01:04:53;16.90;62.00
25108;DHT22;13090;53.422;7.670;2022-07-29T01:09:57;16.90;61.90
25108;DHT22;13090;53.422;7.670;2022-07-29T01:15:03;17.00;62.20
25108;DHT22;13090;53.422;7.670;2022-07-29T01:20:12;16.90;62.40
25108;DHT22;13090;53.422;7.670;2022-07-29T01:25:32;17.00;62.80
25108;DHT22;13090;53.422;7.670;2022-07-29T01:30:42;17.00;63.30
25108;DHT22;13090;53.422;7.670;2022-07-29T01:35:46;17.00;63.00
25108;DHT22;13090;53.422;7.670;2022-07-29T01:40:52;17.00;62.70
25108;DHT22;13090;53.422;7.670;2022-07-29T01:46:00;17.00;63.00
25108;DHT22;13090;53.422;7.670;2022-07-29T01:51:05;17.10;63.00
25108;DHT22;13090;53.422;7.670;2022-07-29T01:56:10;17.10;62.40
25108;DHT22;13090;53.422;7.670;2022-07-29T02:01:16;17.20;62.40
25108;DHT22;13090;53.422;7.670;2022-07-29T02:06:22;17.20;63.00
25108;DHT22;13090;53.422;7.670;2022-07-29T02:11:25;17.20;63.00
25108;DHT22;13090;53.422;7.670;2022-07-29T02:16:31;17.20;63.00
25108;DHT22;13090;53.422;7.670;2022-07-29T02:21:35;17.10;63.60
25108;DHT22;13090;53.422;7.670;2022-07-29T02:26:40;17.10;63.30
25108;DHT22;13090;53.422;7.670;2022-07-29T02:31:46;17.10;63.60
25108;DHT22;13090;53.422;7.670;2022-07-29T02:36:50;17.20;64.00
25108;DHT22;13090;53.422;7.670;2022-07-29T02:41:59;17.10;63.50
25108;DHT22;13090;53.422;7.670;2022-07-29T02:47:10;17.10;64.00
25108;DHT22;13090;53.422;7.670;2022-07-29T02:52:19;17.10;64.20
25108;DHT22;13090;53.422;7.670;2022-07-29T02:57:31;17.20;64.10
25108;DHT22;13090;53.422;7.670;2022-07-29T03:02:39;17.20;64.30
25108;DHT22;13090;53.422;7.670;2022-07-29T03:07:46;17.20;64.10
25108;DHT22;13090;53.422;7.670;2022-07-29T03:12:49;17.20;64.10
25108;DHT22;13090;53.422;7.670;2022-07-29T03:17:54;17.20;64.00
25108;DHT22;13090;53.422;7.670;2022-07-29T03:22:56;17.30;64.00
25108;DHT22;13090;53.422;7.670;2022-07-29T03:27:59;17.20;64.00
25108;DHT22;13090;53.422;7.670;2022-07-29T03:33:05;17.30;64.10
25108;DHT22;13090;53.422;7.670;2022-07-29T03:38:15;17.30;64.20
25108;DHT22;13090;53.422;7.670;2022-07-29T03:43:18;17.30;64.20
25108;DHT22;13090;53.422;7.670;2022-07-29T03:48:24;17.30;64.20
25108;DHT22;13090;53.422;7.670;2022-07-29T03:53:27;17.30;64.40
25108;DHT22;13090;53.422;7.670;2022-07-29T03:58:31;17.30;64.20
25108;DHT22;13090;53.422;7.670;2022-07-29T04:03:35;17.30;64.30
25108;DHT22;13090;53.422;7.670;2022-07-29T04:08:38;17.30;64.40
25108;DHT22;13090;53.422;7.670;2022-07-29T04:13:40;17.30;64.20
25108;DHT22;13090;53.422;7.670;2022-07-29T04:18:44;17.30;64.40
25108;DHT22;13090;53.422;7.670;2022-07-29T04:23:46;17.20;64.60
25108;DHT22;13090;53.422;7.670;2022-07-29T04:28:55;17.20;64.70
25108;DHT22;13090;53.422;7.670;2022-07-29T04:33:58;17.10;64.80
25108;DHT22;13090;53.422;7.670;2022-07-29T04:39:01;17.10;65.10
25108;DHT22;13090;53.422;7.670;2022-07-29T04:44:04;17.10;65.00
25108;DHT22;13090;53.422;7.670;2022-07-29T04:49:09;17.10;65.30
25108;DHT22;13090;53.422;7.670;2022-07-29T04:54:11;17.10;65.70
25108;DHT22;13090;53.422;7.670;2022-07-29T04:59:14;17.10;65.60
25108;DHT22;13090;53.422;7.670;2022-07-29T05:04:18;17.20;65.80
25108;DHT22;13090;53.422;7.670;2022-07-29T05:09:22;17.20;66.00
25108;DHT22;13090;53.422;7.670;2022-07-29T05:14:24;17.30;66.30
25108;DHT22;13090;53.422;7.670;2022-07-29T05:19:29;17.30;65.90
25108;DHT22;13090;53.422;7.670;2022-07-29T05:24:31;17.30;65.90
25108;DHT22;13090;53.422;7.670;2022-07-29T05:29:34;17.40;66.10
25108;DHT22;13090;53.422;7.670;2022-07-29T05:34:48;17.50;66.10
25108;DHT22;13090;53.422;7.670;2022-07-29T05:39:52;17.60;66.10
25108;DHT22;13090;53.422;7.670;2022-07-29T05:44:58;17.60;65.90
25108;DHT22;13090;53.422;7.670;2022-07-29T05:50:02;17.70;66.10
25108;DHT22;13090;53.422;7.670;2022-07-29T05:55:05;17.70;66.40
25108;DHT22;13090;53.422;7.670;2022-07-29T06:00:09;17.80;66.50
25108;DHT22;13090;53.422;7.670;2022-07-29T06:05:13;17.90;66.80
25108;DHT22;13090;53.422;7.670;2022-07-29T06:10:18;18.00;66.50
25108;DHT22;13090;53.422;7.670;2022-07-29T06:15:25;18.00;67.00
25108;DHT22;13090;53.422;7.670;2022-07-29T06:20:29;18.10;67.00
25108;DHT22;13090;53.422;7.670;2022-07-29T06:25:33;18.20;67.10
25108;DHT22;13090;53.422;7.670;2022-07-29T06:30:35;18.30;67.20
25108;DHT22;13090;53.422;7.670;2022-07-29T06:35:39;18.50;67.20
25108;DHT22;13090;53.422;7.670;2022-07-29T06:40:54;18.70;66.80
25108;DHT22;13090;53.422;7.670;2022-07-29T06:45:58;18.90;66.20
25108;DHT22;13090;53.422;7.670;2022-07-29T06:51:02;19.10;65.80
25108;DHT22;13090;53.422;7.670;2022-07-29T06:56:06;19.20;65.70
25108;DHT22;13090;53.422;7.670;2022-07-29T07:01:09;19.30;65.40
25108;DHT22;13090;53.422;7.670;2022-07-29T07:06:16;19.40;65.50
25108;DHT22;13090;53.422;7.670;2022-07-29T07:11:40;19.60;65.50
25108;DHT22;13090;53.422;7.670;2022-07-29T07:16:43;19.90;64.90
25108;DHT22;13090;53.422;7.670;2022-07-29T07:21:47;20.00;64.30
25108;DHT22;13090;53.422;7.670;2022-07-29T07:26:50;20.20;64.20
25108;DHT22;13090;53.422;7.670;2022-07-29T07:31:53;20.30;64.10
25108;DHT22;13090;53.422;7.670;2022-07-29T07:37:03;20.60;64.30
25108;DHT22;13090;53.422;7.670;2022-07-29T07:42:06;21.00;63.60
25108;DHT22;13090;53.422;7.670;2022-07-29T07:47:08;21.30;62.60
25108;DHT22;13090;53.422;7.670;2022-07-29T07:52:15;21.40;62.10
25108;DHT22;13090;53.422;7.670;2022-07-29T07:57:18;21.50;61.30
25108;DHT22;13090;53.422;7.670;2022-07-29T08:02:21;21.60;61.40
25108;DHT22;13090;53.422;7.670;2022-07-29T08:07:25;21.80;61.60
25108;DHT22;13090;53.422;7.670;2022-07-29T08:12:27;22.30;61.70
25108;DHT22;13090;53.422;7.670;2022-07-29T08:17:30;22.90;60.90
25108;DHT22;13090;53.422;7.670;2022-07-29T08:22:37;23.50;59.00
25108;DHT22;13090;53.422;7.670;2022-07-29T08:27:40;24.00;59.10
25108;DHT22;13090;53.422;7.670;2022-07-29T08:32:45;24.70;58.70
25108;DHT22;13090;53.422;7.670;2022-07-29T08:37:57;25.10;56.20
25108;DHT22;13090;53.422;7.670;2022-07-29T08:43:05;25.40;55.20
25108;DHT22;13090;53.422;7.670;2022-07-29T08:48:07;25.70;55.10
25108;DHT22;13090;53.422;7.670;2022-07-29T08:53:14;26.20;56.60
25108;DHT22;13090;53.422;7.670;2022-07-29T08:58:17;26.70;54.00
25108;DHT22;13090;53.422;7.670;2022-07-29T09:03:30;27.00;53.00
25108;DHT22;13090;53.422;7.670;2022-07-29T09:08:35;27.00;52.70
25108;DHT22;13090;53.422;7.670;2022-07-29T09:13:37;26.90;51.00
25108;DHT22;13090;53.422;7.670;2022-07-29T09:18:41;26.60;51.00
25108;DHT22;13090;53.422;7.670;2022-07-29T09:24:04;26.40;50.70
25108;DHT22;13090;53.422;7.670;2022-07-29T09:29:10;26.30;50.80
25108;DHT22;13090;53.422;7.670;2022-07-29T09:34:15;26.10;51.20
25108;DHT22;13090;53.422;7.670;2022-07-29T09:39:29;26.00;51.70
25108;DHT22;13090;53.422;7.670;2022-07-29T09:44:44;26.10;52.00
25108;DHT22;13090;53.422;7.670;2022-07-29T09:49:55;26.20;52.40
25108;DHT22;13090;53.422;7.670;2022-07-29T09:55:07;26.30;51.70
25108;DHT22;13090;53.422;7.670;2022-07-29T10:00:12;26.20;51.50
25108;DHT22;13090;53.422;7.670;2022-07-29T10:05:20;26.30;51.10
25108;DHT22;13090;53.422;7.670;2022-07-29T10:10:27;26.20;47.90
25108;DHT22;13090;53.422;7.670;2022-07-29T10:15:32;26.10;49.90
25108;DHT22;13090;53.422;7.670;2022-07-29T10:20:35;25.90;50.20
25108;DHT22;13090;53.422;7.670;2022-07-29T10:25:39;26.10;51.10
25108;DHT22;13090;53.422;7.670;2022-07-29T10:30:49;26.40;50.80
25108;DHT22;13090;53.422;7.670;2022-07-29T10:36:10;26.80;51.10
25108;DHT22;13090;53.422;7.670;2022-07-29T10:41:33;27.20;49.60
25108;DHT22;13090;53.422;7.670;2022-07-29T10:46:46;27.40;49.30
25108;DHT22;13090;53.422;7.670;2022-07-29T10:51:59;27.80;49.20
25108;DHT22;13090;53.422;7.670;2022-07-29T10:57:13;28.20;48.00
25108;DHT22;13090;53.422;7.670;2022-07-29T11:02:42;28.70;46.30
25108;DHT22;13090;53.422;7.670;2022-07-29T11:08:21;28.70;46.50
25108;DHT22;13090;53.422;7.670;2022-07-29T11:13:49;28.50;45.30
25108;DHT22;13090;53.422;7.670;2022-07-29T11:19:21;28.60;44.60
25108;DHT22;13090;53.422;7.670;2022-07-29T11:24:32;28.60;42.80
25108;DHT22;13090;53.422;7.670;2022-07-29T11:29:40;28.40;44.30
25108;DHT22;13090;53.422;7.670;2022-07-29T11:34:44;28.10;42.80
25108;DHT22;13090;53.422;7.670;2022-07-29T11:40:07;27.80;44.20
25108;DHT22;13090;53.422;7.670;2022-07-29T11:45:15;27.70;44.00
25108;DHT22;13090;53.422;7.670;2022-07-29T11:50:39;27.50;44.70
25108;DHT22;13090;53.422;7.670;2022-07-29T11:56:04;27.40;44.80
25108;DHT22;13090;53.422;7.670;2022-07-29T12:01:17;27.30;45.60
25108;DHT22;13090;53.422;7.670;2022-07-29T12:06:20;27.40;45.40
25108;DHT22;13090;53.422;7.670;2022-07-29T12:11:23;27.50;45.70
25108;DHT22;13090;53.422;7.670;2022-07-29T12:16:37;27.70;45.30
25108;DHT22;13090;53.422;7.670;2022-07-29T12:21:45;27.80;44.40
25108;DHT22;13090;53.422;7.670;2022-07-29T12:27:00;27.80;44.20
25108;DHT22;13090;53.422;7.670;2022-07-29T12:32:05;27.70;44.40
25108;DHT22;13090;53.422;7.670;2022-07-29T12:37:22;27.40;43.90
25108;DHT22;13090;53.422;7.670;2022-07-29T12:43:09;27.20;44.80
25108;DHT22;13090;53.422;7.670;2022-07-29T12:48:15;26.90;45.40
25108;DHT22;13090;53.422;7.670;2022-07-29T12:53:18;26.70;45.80
25108;DHT22;13090;53.422;7.670;2022-07-29T12:58:30;26.50;46.90
25108;DHT22;13090;53.422;7.670;2022-07-29T13:03:51;26.30;47.00
25108;DHT22;13090;53.422;7.670;2022-07-29T13:09:00;26.10;47.60
25108;DHT22;13090;53.422;7.670;2022-07-29T13:14:04;25.90;48.20
25108;DHT22;13090;53.422;7.670;2022-07-29T13:19:13;25.80;48.50
25108;DHT22;13090;53.422;7.670;2022-07-29T13:24:17;25.70;49.00
25108;DHT22;13090;53.422;7.670;2022-07-29T13:29:21;25.60;49.40
25108;DHT22;13090;53.422;7.670;2022-07-29T13:34:26;25.70;49.50
25108;DHT22;13090;53.422;7.670;2022-07-29T13:39:28;25.80;49.40
25108;DHT22;13090;53.422;7.670;2022-07-29T13:44:31;25.90;49.60
25108;DHT22;13090;53.422;7.670;2022-07-29T13:49:37;26.10;50.00
25108;DHT22;13090;53.422;7.670;2022-07-29T13:54:39;26.30;49.50
25108;DHT22;13090;53.422;7.670;2022-07-29T13:59:43;26.50;49.30
25108;DHT22;13090;53.422;7.670;2022-07-29T14:04:49;26.50;49.10
25108;DHT22;13090;53.422;7.670;2022-07-29T14:09:52;26.60;49.20
25108;DHT22;13090;53.422;7.670;2022-07-29T14:14:54;26.60;49.50
25108;DHT22;13090;53.422;7.670;2022-07-29T14:19:58;26.70;50.30
25108;DHT22;13090;53.422;7.670;2022-07-29T14:25:00;26.80;50.40
25108;DHT22;13090;53.422;7.670;2022-07-29T14:30:16;26.90;50.30
25108;DHT22;13090;53.422;7.670;2022-07-29T14:35:20;26.90;50.10
25108;DHT22;13090;53.422;7.670;2022-07-29T14:40:22;27.00;50.60
25108;DHT22;13090;53.422;7.670;2022-07-29T14:45:25;27.00;50.60
25108;DHT22;13090;53.422;7.670;2022-07-29T14:50:29;27.10;50.50
25108;DHT22;13090;53.422;7.670;2022-07-29T14:55:33;27.10;50.60
25108;DHT22;13090;53.422;7.670;2022-07-29T15:00:35;27.20;50.60
25108;DHT22;13090;53.422;7.670;2022-07-29T15:05:39;27.20;50.50
25108;DHT22;13090;53.422;7.670;2022-07-29T15:10:42;27.30;50.50
25108;DHT22;13090;53.422;7.670;2022-07-29T15:15:44;27.30;50.40
25108;DHT22;13090;53.422;7.670;2022-07-29T15:20:49;27.30;50.40
25108;DHT22;13090;53.422;7.670;2022-07-29T15:25:52;27.30;50.50
25108;DHT22;13090;53.422;7.670;2022-07-29T15:30:55;27.20;50.60
25108;DHT22;13090;53.422;7.670;2022-07-29T15:35:59;27.20;50.70
25108;DHT22;13090;53.422;7.670;2022-07-29T15:41:01;27.10;50.90
25108;DHT22;13090;53.422;7.670;2022-07-29T15:46:04;27.00;51.20
25108;DHT22;13090;53.422;7.670;2022-07-29T15:51:08;26.90;51.40
25108;DHT22;13090;53.422;7.670;2022-07-29T15:56:11;26.80;51.70
25108;DHT22;13090;53.422;7.670;2022-07-29T16:01:13;26.70;52.10
25108;DHT22;13090;53.422;7.670;2022-07-29T16:06:17;26.70;52.40
25108;DHT22;13090;53.422;7.670;2022-07-29T16:11:20;26.70;52.60
25108;DHT22;13090;53.422;7.670;2022-07-29T16:16:22;26.70;52.70
25108;DHT22;13090;53.422;7.670;2022-07-29T16:21:26;26.60;52.50
25108;DHT22;13090;53.422;7.670;2022-07-29T16:26:28;26.60;52.50
25108;DHT22;13090;53.422;7.670;2022-07-29T16:31:31;26.50;52.30
25108;DHT22;13090;53.422;7.670;2022-07-29T16:36:35;26.40;52.30
25108;DHT22;13090;53.422;7.670;2022-07-29T16:41:37;26.40;52.40
25108;DHT22;13090;53.422;7.670;2022-07-29T16:46:43;26.20;52.10
25108;DHT22;13090;53.422;7.670;2022-07-29T16:51:47;26.20;52.30
25108;DHT22;13090;53.422;7.670;2022-07-29T16:56:49;26.10;52.20
25108;DHT22;13090;53.422;7.670;2022-07-29T17:01:51;26.00;52.30
25108;DHT22;13090;53.422;7.670;2022-07-29T17:06:56;26.00;52.50
25108;DHT22;13090;53.422;7.670;2022-07-29T17:11:59;26.00;52.70
25108;DHT22;13090;53.422;7.670;2022-07-29T17:17:02;26.00;52.70
25108;DHT22;13090;53.422;7.670;2022-07-29T17:22:06;26.10;52.60
25108;DHT22;13090;53.422;7.670;2022-07-29T17:27:17;26.10;52.80
25108;DHT22;13090;53.422;7.670;2022-07-29T17:32:19;26.10;52.60
25108;DHT22;13090;53.422;7.670;2022-07-29T17:37:24;26.00;52.50
25108;DHT22;13090;53.422;7.670;2022-07-29T17:42:26;26.00;52.30
25108;DHT22;13090;53.422;7.670;2022-07-29T17:47:29;25.90;52.30
25108;DHT22;13090;53.422;7.670;2022-07-29T17:52:33;25.70;52.40
25108;DHT22;13090;53.422;7.670;2022-07-29T17:57:35;25.70;52.60
25108;DHT22;13090;53.422;7.670;2022-07-29T18:02:38;25.60;52.60
25108;DHT22;13090;53.422;7.670;2022-07-29T18:07:42;25.60;52.70
25108;DHT22;13090;53.422;7.670;2022-07-29T18:12:44;25.60;52.70
25108;DHT22;13090;53.422;7.670;2022-07-29T18:17:47;25.70;52.70
25108;DHT22;13090;53.422;7.670;2022-07-29T18:23:00;25.60;52.70
25108;DHT22;13090;53.422;7.670;2022-07-29T18:28:03;25.60;52.70
25108;DHT22;13090;53.422;7.670;2022-07-29T18:33:06;25.60;52.80
25108;DHT22;13090;53.422;7.670;2022-07-29T18:38:25;25.50;52.80
25108;DHT22;13090;53.422;7.670;2022-07-29T18:43:28;25.50;52.90
25108;DHT22;13090;53.422;7.670;2022-07-29T18:48:31;25.50;52.90
25108;DHT22;13090;53.422;7.670;2022-07-29T18:53:35;25.50;53.00
25108;DHT22;13090;53.422;7.670;2022-07-29T18:58:38;25.40;53.00
25108;DHT22;13090;53.422;7.670;2022-07-29T19:03:40;25.40;52.90
25108;DHT22;13090;53.422;7.670;2022-07-29T19:08:44;25.30;53.00
25108;DHT22;13090;53.422;7.670;2022-07-29T19:13:47;25.20;53.00
25108;DHT22;13090;53.422;7.670;2022-07-29T19:18:49;25.10;53.10
25108;DHT22;13090;53.422;7.670;2022-07-29T19:23:53;24.90;53.30
25108;DHT22;13090;53.422;7.670;2022-07-29T19:29:09;24.70;53.70
25108;DHT22;13090;53.422;7.670;2022-07-29T19:34:12;24.60;53.90
25108;DHT22;13090;53.422;7.670;2022-07-29T19:39:16;24.50;54.20
25108;DHT22;13090;53.422;7.670;2022-07-29T19:44:35;24.40;54.30
25108;DHT22;13090;53.422;7.670;2022-07-29T19:49:38;24.40;54.40
25108;DHT22;13090;53.422;7.670;2022-07-29T19:54:42;24.40;54.70
25108;DHT22;13090;53.422;7.670;2022-07-29T19:59:45;24.30;54.90
25108;DHT22;13090;53.422;7.670;2022-07-29T20:04:47;24.20;54.90
25108;DHT22;13090;53.422;7.670;2022-07-29T20:09:52;24.20;55.10
25108;DHT22;13090;53.422;7.670;2022-07-29T20:14:54;24.10;55.30
25108;DHT22;13090;53.422;7.670;2022-07-29T20:19:57;24.00;55.40
25108;DHT22;13090;53.422;7.670;2022-07-29T20:25:01;24.00;55.50
25108;DHT22;13090;53.422;7.670;2022-07-29T20:30:04;23.90;55.80
25108;DHT22;13090;53.422;7.670;2022-07-29T20:35:09;23.80;56.00
25108;DHT22;13090;53.422;7.670;2022-07-29T20:40:13;23.70;56.30
25108;DHT22;13090;53.422;7.670;2022-07-29T20:45:15;23.60;56.80
25108;DHT22;13090;53.422;7.670;2022-07-29T20:50:19;23.40;56.80
25108;DHT22;13090;53.422;7.670;2022-07-29T20:55:26;23.30;57.20
25108;DHT22;13090;53.422;7.670;2022-07-29T21:00:29;23.20;57.50
25108;DHT22;13090;53.422;7.670;2022-07-29T21:05:31;23.00;57.70
25108;DHT22;13090;53.422;7.670;2022-07-29T21:10:35;22.90;57.80
25108;DHT22;13090;53.422;7.670;2022-07-29T21:15:38;22.80;58.10
25108;DHT22;13090;53.422;7.670;2022-07-29T21:20:40;22.80;58.00
25108;DHT22;13090;53.422;7.670;2022-07-29T21:25:44;22.80;58.20
25108;DHT22;13090;53.422;7.670;2022-07-29T21:30:47;22.70;58.50
25108;DHT22;13090;53.422;7.670;2022-07-29T21:35:49;22.70;58.30
25108;DHT22;13090;53.422;7.670;2022-07-29T21:41:14;22.70;58.50
25108;DHT22;13090;53.422;7.670;2022-07-29T21:46:16;22.60;58.70
25108;DHT22;13090;53.422;7.670;2022-07-29T21:51:19;22.60;58.80
25108;DHT22;13090;53.422;7.670;2022-07-29T21:56:23;22.50;59.00
25108;DHT22;13090;53.422;7.670;2022-07-29T22:01:28;22.40;59.30
25108;DHT22;13090;53.422;7.670;2022-07-29T22:06:40;22.30;58.90
25108;DHT22;13090;53.422;7.670;2022-07-29T22:11:44;22.20;59.20
25108;DHT22;13090;53.422;7.670;2022-07-29T22:16:47;22.10;59.70
25108;DHT22;13090;53.422;7.670;2022-07-29T22:21:50;22.10;59.90
25108;DHT22;13090;53.422;7.670;2022-07-29T22:26:54;22.00;60.20
25108;DHT22;13090;53.422;7.670;2022-07-29T22:31:57;21.90;60.50
25108;DHT22;13090;53.422;7.670;2022-07-29T22:36:59;21.90;60.50
25108;DHT22;13090;53.422;7.670;2022-07-29T22:42:04;21.90;60.70
25108;DHT22;13090;53.422;7.670;2022-07-29T22:47:06;21.80;61.10
25108;DHT22;13090;53.422;7.670;2022-07-29T22:52:09;21.80;61.30
25108;DHT22;13090;53.422;7.670;2022-07-29T22:57:13;21.70;61.50
25108;DHT22;13090;53.422;7.670;2022-07-29T23:02:15;21.70;61.80
25108;DHT22;13090;53.422;7.670;2022-07-29T23:07:18;21.70;61.90
25108;DHT22;13090;53.422;7.670;2022-07-29T23:12:22;21.60;62.10
25108;DHT22;13090;53.422;7.670;2022-07-29T23:17:24;21.60;62.40
25108;DHT22;13090;53.422;7.670;2022-07-29T23:22:27;21.60;62.40
25108;DHT22;13090;53.422;7.670;2022-07-29T23:27:31;21.60;62.50
25108;DHT22;13090;53.422;7.670;2022-07-29T23:32:33;21.60;62.80
25108;DHT22;13090;53.422;7.670;2022-07-29T23:37:36;21.60;62.80
25108;DHT22;13090;53.422;7.670;2022-07-29T23:42:40;21.60;62.90
25108;DHT22;13090;53.422;7.670;2022-07-29T23:47:43;21.50;63.20
25108;DHT22;13090;53.422;7.670;2022-07-29T23:52:45;21.50;63.30
25108;DHT22;13090;53.422;7.670;2022-07-29T23:57:49;21.40;63.60
